sensor_id;sensor_type;location;lat;lon;timestamp;pressure;altitude;pressure_sealevel;temperature;humidity
10261;BME280;5175;42.606;23.388;2023-02-10T00:01:34;95460.38;;;-6.16;74.53
10261;BME280;5175;42.606;23.388;2023-02-10T00:04:02;95463.91;;;-6.26;73.58
10261;BME280;5175;42.606;23.388;2023-02-10T00:06:29;95458.88;;;-6.18;73.23
10261;BME280;5175;42.606;23.388;2023-02-10T00:08:58;95462.28;;;-6.18;73.41
10261;BME280;5175;42.606;23.388;2023-02-10T00:11:26;95458.34;;;-6.22;73.40
10261;BME280;5175;42.606;23.388;2023-02-10T00:14:07;95464.34;;;-6.21;74.06
10261;BME280;5175;42.606;23.388;2023-02-10T00:16:34;95427.72;;;-6.38;73.58
10261;BME280;5175;42.606;23.388;2023-02-10T00:19:03;95457.38;;;-6.11;73.89
10261;BME280;5175;42.606;23.388;2023-02-10T00:21:29;95451.22;;;-6.10;74.53
10261;BME280;5175;42.606;23.388;2023-02-10T00:23:56;95449.19;;;-6.16;75.64
10261;BME280;5175;42.606;23.388;2023-02-10T00:26:23;95454.97;;;-6.62;79.92
10261;BME280;5175;42.606;23.388;2023-02-10T00:28:50;95449.78;;;-6.62;80.85
10261;BME280;5175;42.606;23.388;2023-02-10T00:31:17;95448.31;;;-6.55;80.67
10261;BME280;5175;42.606;23.388;2023-02-10T00:33:46;95446.16;;;-6.41;80.32
10261;BME280;5175;42.606;23.388;2023-02-10T00:36:15;95423.72;;;-6.51;80.17
10261;BME280;5175;42.606;23.388;2023-02-10T00:38:43;95429.06;;;-6.53;79.92
10261;BME280;5175;42.606;23.388;2023-02-10T00:41:12;95443.13;;;-6.46;78.92
10261;BME280;5175;42.606;23.388;2023-02-10T00:43:39;95442.81;;;-6.62;78.43
10261;BME280;5175;42.606;23.388;2023-02-10T00:46:06;95436.28;;;-6.66;78.55
10261;BME280;5175;42.606;23.388;2023-02-10T00:48:33;95432.25;;;-6.89;79.70
10261;BME280;5175;42.606;23.388;2023-02-10T00:51:00;95423.06;;;-7.03;80.63
10261;BME280;5175;42.606;23.388;2023-02-10T00:53:28;95420.19;;;-7.09;80.87
10261;BME280;5175;42.606;23.388;2023-02-10T00:55:55;95417.88;;;-7.03;82.40
10261;BME280;5175;42.606;23.388;2023-02-10T00:58:22;95418.97;;;-6.95;82.22
10261;BME280;5175;42.606;23.388;2023-02-10T01:00:48;95415.97;;;-7.01;82.48
10261;BME280;5175;42.606;23.388;2023-02-10T01:03:15;95413.19;;;-7.09;84.42
10261;BME280;5175;42.606;23.388;2023-02-10T01:05:42;95420.88;;;-6.97;84.56
10261;BME280;5175;42.606;23.388;2023-02-10T01:08:10;95414.88;;;-6.98;82.50
10261;BME280;5175;42.606;23.388;2023-02-10T01:10:38;95411.75;;;-7.02;82.77
10261;BME280;5175;42.606;23.388;2023-02-10T01:13:06;95405.50;;;-6.89;82.89
10261;BME280;5175;42.606;23.388;2023-02-10T01:15:33;95414.03;;;-7.08;83.20
10261;BME280;5175;42.606;23.388;2023-02-10T01:18:00;95409.38;;;-7.14;84.36
10261;BME280;5175;42.606;23.388;2023-02-10T01:20:27;95402.28;;;-7.12;85.29
10261;BME280;5175;42.606;23.388;2023-02-10T01:22:54;95401.78;;;-6.96;84.61
10261;BME280;5175;42.606;23.388;2023-02-10T01:25:21;95397.19;;;-6.74;82.26
10261;BME280;5175;42.606;23.388;2023-02-10T01:27:49;95396.94;;;-6.71;82.83
10261;BME280;5175;42.606;23.388;2023-02-10T01:30:16;95391.47;;;-6.58;82.09
10261;BME280;5175;42.606;23.388;2023-02-10T01:32:42;95395.84;;;-6.49;80.87
10261;BME280;5175;42.606;23.388;2023-02-10T01:35:09;95389.97;;;-6.42;80.00
10261;BME280;5175;42.606;23.388;2023-02-10T01:37:36;95386.28;;;-6.49;80.18
10261;BME280;5175;42.606;23.388;2023-02-10T01:40:03;95391.47;;;-6.39;80.38
10261;BME280;5175;42.606;23.388;2023-02-10T01:42:30;95384.94;;;-6.33;79.48
10261;BME280;5175;42.606;23.388;2023-02-10T01:45:23;95388.34;;;-6.43;78.59
10261;BME280;5175;42.606;23.388;2023-02-10T01:47:52;95384.09;;;-6.34;78.63
10261;BME280;5175;42.606;23.388;2023-02-10T01:50:22;95381.78;;;-6.56;79.05
10261;BME280;5175;42.606;23.388;2023-02-10T01:52:51;95384.09;;;-6.44;78.84
10261;BME280;5175;42.606;23.388;2023-02-10T01:55:20;95371.94;;;-6.43;78.32
10261;BME280;5175;42.606;23.388;2023-02-10T01:57:48;95380.56;;;-6.43;77.65
10261;BME280;5175;42.606;23.388;2023-02-10T02:00:20;95370.44;;;-6.26;75.61
10261;BME280;5175;42.606;23.388;2023-02-10T02:02:48;95371.81;;;-6.51;76.46
10261;BME280;5175;42.606;23.388;2023-02-10T02:05:27;95370.97;;;-6.71;77.49
10261;BME280;5175;42.606;23.388;2023-02-10T02:07:56;95367.31;;;-6.68;78.33
10261;BME280;5175;42.606;23.388;2023-02-10T02:10:28;95360.75;;;-6.53;76.93
10261;BME280;5175;42.606;23.388;2023-02-10T02:13:02;95354.03;;;-6.75;78.37
10261;BME280;5175;42.606;23.388;2023-02-10T02:15:35;95346.50;;;-6.87;80.08
10261;BME280;5175;42.606;23.388;2023-02-10T02:18:10;95341.34;;;-6.68;79.92
10261;BME280;5175;42.606;23.388;2023-02-10T02:20:53;95337.25;;;-6.52;79.67
10261;BME280;5175;42.606;23.388;2023-02-10T02:26:41;95333.41;;;-6.67;80.13
10261;BME280;5175;42.606;23.388;2023-02-10T02:32:20;95327.69;;;-6.61;80.49
10261;BME280;5175;42.606;23.388;2023-02-10T02:34:51;95333.28;;;-6.56;80.11
10261;BME280;5175;42.606;23.388;2023-02-10T02:37:22;95334.94;;;-6.45;79.16
10261;BME280;5175;42.606;23.388;2023-02-10T02:39:52;95328.47;;;-6.31;78.14
10261;BME280;5175;42.606;23.388;2023-02-10T02:42:22;95327.25;;;-6.47;77.62
10261;BME280;5175;42.606;23.388;2023-02-10T02:44:52;95320.16;;;-6.54;78.52
10261;BME280;5175;42.606;23.388;2023-02-10T02:47:39;95327.56;;;-6.50;77.35
10261;BME280;5175;42.606;23.388;2023-02-10T02:50:19;95334.91;;;-6.36;75.05
10261;BME280;5175;42.606;23.388;2023-02-10T02:52:56;95336.97;;;-6.39;75.51
10261;BME280;5175;42.606;23.388;2023-02-10T02:55:34;95335.75;;;-6.45;75.41
10261;BME280;5175;42.606;23.388;2023-02-10T02:58:09;95333.84;;;-6.43;74.72
10261;BME280;5175;42.606;23.388;2023-02-10T03:00:38;95333.00;;;-6.43;74.93
10261;BME280;5175;42.606;23.388;2023-02-10T03:03:08;95341.22;;;-6.48;75.56
10261;BME280;5175;42.606;23.388;2023-02-10T03:05:35;95339.16;;;-6.44;76.14
10261;BME280;5175;42.606;23.388;2023-02-10T03:08:01;95334.09;;;-6.46;76.12
10261;BME280;5175;42.606;23.388;2023-02-10T03:10:28;95327.81;;;-6.43;77.06
10261;BME280;5175;42.606;23.388;2023-02-10T03:12:55;95329.06;;;-6.38;76.89
10261;BME280;5175;42.606;23.388;2023-02-10T03:15:22;95325.38;;;-6.45;76.08
10261;BME280;5175;42.606;23.388;2023-02-10T03:17:48;95331.50;;;-6.46;75.87
10261;BME280;5175;42.606;23.388;2023-02-10T03:20:16;95316.06;;;-6.66;76.91
10261;BME280;5175;42.606;23.388;2023-02-10T03:22:43;95340.66;;;-6.61;75.73
10261;BME280;5175;42.606;23.388;2023-02-10T03:25:10;95345.44;;;-6.66;75.96
10261;BME280;5175;42.606;23.388;2023-02-10T03:27:37;95353.50;;;-6.78;75.39
10261;BME280;5175;42.606;23.388;2023-02-10T03:30:04;95340.22;;;-6.85;74.80
10261;BME280;5175;42.606;23.388;2023-02-10T03:32:31;95346.34;;;-7.05;75.92
10261;BME280;5175;42.606;23.388;2023-02-10T03:34:58;95341.97;;;-7.14;76.40
10261;BME280;5175;42.606;23.388;2023-02-10T03:37:26;95341.97;;;-7.14;77.30
10261;BME280;5175;42.606;23.388;2023-02-10T03:39:53;95332.69;;;-7.17;77.30
10261;BME280;5175;42.606;23.388;2023-02-10T03:42:19;95329.00;;;-7.54;79.41
10261;BME280;5175;42.606;23.388;2023-02-10T03:44:46;95328.66;;;-7.70;79.71
10261;BME280;5175;42.606;23.388;2023-02-10T03:47:13;95333.16;;;-7.72;79.02
10261;BME280;5175;42.606;23.388;2023-02-10T03:49:39;95330.06;;;-7.66;78.31
10261;BME280;5175;42.606;23.388;2023-02-10T03:52:06;95331.16;;;-7.99;79.50
10261;BME280;5175;42.606;23.388;2023-02-10T03:54:34;95329.22;;;-8.06;79.87
10261;BME280;5175;42.606;23.388;2023-02-10T03:57:01;95327.09;;;-7.92;79.71
10261;BME280;5175;42.606;23.388;2023-02-10T03:59:27;95327.09;;;-7.92;79.58
10261;BME280;5175;42.606;23.388;2023-02-10T04:01:54;95319.50;;;-8.14;81.42
10261;BME280;5175;42.606;23.388;2023-02-10T04:04:21;95320.50;;;-7.96;81.27
10261;BME280;5175;42.606;23.388;2023-02-10T04:06:48;95324.97;;;-8.07;80.95
10261;BME280;5175;42.606;23.388;2023-02-10T04:09:14;95320.38;;;-8.04;81.29
10261;BME280;5175;42.606;23.388;2023-02-10T04:11:42;95333.78;;;-7.89;81.10
10261;BME280;5175;42.606;23.388;2023-02-10T04:14:09;95313.28;;;-8.02;80.68
10261;BME280;5175;42.606;23.388;2023-02-10T04:16:36;95311.88;;;-8.06;81.44
10261;BME280;5175;42.606;23.388;2023-02-10T04:19:02;95304.44;;;-8.30;83.08
10261;BME280;5175;42.606;23.388;2023-02-10T04:21:29;95310.41;;;-8.29;82.68
10261;BME280;5175;42.606;23.388;2023-02-10T04:23:56;95311.25;;;-8.19;82.84
10261;BME280;5175;42.606;23.388;2023-02-10T04:26:22;95315.63;;;-8.19;81.84
10261;BME280;5175;42.606;23.388;2023-02-10T04:28:50;95314.53;;;-8.27;81.41
10261;BME280;5175;42.606;23.388;2023-02-10T04:31:17;95311.78;;;-8.35;82.06
10261;BME280;5175;42.606;23.388;2023-02-10T04:33:44;95311.38;;;-8.30;80.80
10261;BME280;5175;42.606;23.388;2023-02-10T04:36:11;95313.28;;;-8.53;82.28
10261;BME280;5175;42.606;23.388;2023-02-10T04:38:37;95315.53;;;-8.39;82.50
10261;BME280;5175;42.606;23.388;2023-02-10T04:41:04;95311.38;;;-8.51;83.01
10261;BME280;5175;42.606;23.388;2023-02-10T04:43:31;95320.75;;;-8.50;82.73
10261;BME280;5175;42.606;23.388;2023-02-10T04:45:59;95321.22;;;-8.45;82.13
10261;BME280;5175;42.606;23.388;2023-02-10T04:48:27;95324.06;;;-8.68;83.30
10261;BME280;5175;42.606;23.388;2023-02-10T04:50:54;95319.56;;;-8.66;83.39
10261;BME280;5175;42.606;23.388;2023-02-10T04:53:21;95325.13;;;-8.71;83.62
10261;BME280;5175;42.606;23.388;2023-02-10T04:55:48;95323.34;;;-8.70;84.28
10261;BME280;5175;42.606;23.388;2023-02-10T04:58:14;95320.50;;;-8.67;84.55
10261;BME280;5175;42.606;23.388;2023-02-10T05:00:41;95321.53;;;-8.59;83.92
10261;BME280;5175;42.606;23.388;2023-02-10T05:03:09;95319.88;;;-8.60;82.97
10261;BME280;5175;42.606;23.388;2023-02-10T05:05:36;95324.44;;;-8.52;82.89
10261;BME280;5175;42.606;23.388;2023-02-10T05:08:03;95327.09;;;-8.63;83.49
10261;BME280;5175;42.606;23.388;2023-02-10T05:10:29;95326.72;;;-8.59;83.65
10261;BME280;5175;42.606;23.388;2023-02-10T05:12:56;95327.72;;;-8.71;84.95
10261;BME280;5175;42.606;23.388;2023-02-10T05:15:23;95335.50;;;-8.50;83.74
10261;BME280;5175;42.606;23.388;2023-02-10T05:17:49;95335.59;;;-8.31;82.92
10261;BME280;5175;42.606;23.388;2023-02-10T05:20:17;95338.72;;;-8.37;88.84
10261;BME280;5175;42.606;23.388;2023-02-10T05:22:44;95341.41;;;-8.39;85.03
10261;BME280;5175;42.606;23.388;2023-02-10T05:25:11;95340.97;;;-8.44;82.83
10261;BME280;5175;42.606;23.388;2023-02-10T05:27:38;95339.25;;;-8.54;83.02
10261;BME280;5175;42.606;23.388;2023-02-10T05:30:06;95354.97;;;-8.67;83.22
10261;BME280;5175;42.606;23.388;2023-02-10T05:32:34;95370.06;;;-8.51;82.12
10261;BME280;5175;42.606;23.388;2023-02-10T05:35:01;95363.31;;;-8.63;83.03
10261;BME280;5175;42.606;23.388;2023-02-10T05:37:29;95364.94;;;-8.62;82.74
10261;BME280;5175;42.606;23.388;2023-02-10T05:39:56;95366.53;;;-8.82;83.96
10261;BME280;5175;42.606;23.388;2023-02-10T05:42:22;95369.44;;;-8.75;84.03
10261;BME280;5175;42.606;23.388;2023-02-10T05:44:49;95375.88;;;-8.70;84.51
10261;BME280;5175;42.606;23.388;2023-02-10T05:47:16;95379.50;;;-8.61;83.96
10261;BME280;5175;42.606;23.388;2023-02-10T05:49:42;95363.06;;;-8.60;82.46
10261;BME280;5175;42.606;23.388;2023-02-10T05:52:09;95378.03;;;-8.75;83.96
10261;BME280;5175;42.606;23.388;2023-02-10T05:54:37;95374.91;;;-8.89;85.22
10261;BME280;5175;42.606;23.388;2023-02-10T05:57:05;95389.19;;;-8.74;84.94
10261;BME280;5175;42.606;23.388;2023-02-10T05:59:32;95362.75;;;-8.78;84.09
10261;BME280;5175;42.606;23.388;2023-02-10T06:01:59;95386.78;;;-8.55;83.31
10261;BME280;5175;42.606;23.388;2023-02-10T06:04:25;95388.63;;;-8.46;83.68
10261;BME280;5175;42.606;23.388;2023-02-10T06:06:52;95384.00;;;-8.63;84.89
10261;BME280;5175;42.606;23.388;2023-02-10T06:09:19;95384.66;;;-8.50;84.10
10261;BME280;5175;42.606;23.388;2023-02-10T06:11:49;95402.38;;;-8.46;84.18
10261;BME280;5175;42.606;23.388;2023-02-10T06:14:16;95395.25;;;-8.53;84.72
10261;BME280;5175;42.606;23.388;2023-02-10T06:16:43;95394.34;;;-8.63;86.21
10261;BME280;5175;42.606;23.388;2023-02-10T06:19:09;95402.03;;;-8.52;86.21
10261;BME280;5175;42.606;23.388;2023-02-10T06:21:36;95398.72;;;-8.43;85.84
10261;BME280;5175;42.606;23.388;2023-02-10T06:24:03;95401.72;;;-8.27;85.51
10261;BME280;5175;42.606;23.388;2023-02-10T06:26:29;95406.31;;;-8.31;86.08
10261;BME280;5175;42.606;23.388;2023-02-10T06:28:58;95398.97;;;-8.26;86.10
10261;BME280;5175;42.606;23.388;2023-02-10T06:31:24;95398.53;;;-7.89;84.93
10261;BME280;5175;42.606;23.388;2023-02-10T06:33:51;95405.72;;;-7.93;84.61
10261;BME280;5175;42.606;23.388;2023-02-10T06:36:18;95407.56;;;-8.04;86.20
10261;BME280;5175;42.606;23.388;2023-02-10T06:38:45;95404.97;;;-7.84;86.29
10261;BME280;5175;42.606;23.388;2023-02-10T06:41:13;95411.97;;;-7.95;86.10
10261;BME280;5175;42.606;23.388;2023-02-10T06:43:39;95406.88;;;-8.06;86.79
10261;BME280;5175;42.606;23.388;2023-02-10T06:46:08;95414.38;;;-8.03;87.04
10261;BME280;5175;42.606;23.388;2023-02-10T06:48:36;95414.56;;;-8.16;88.85
10261;BME280;5175;42.606;23.388;2023-02-10T06:51:03;95418.38;;;-7.99;89.29
10261;BME280;5175;42.606;23.388;2023-02-10T06:53:29;95425.75;;;-7.95;90.39
10261;BME280;5175;42.606;23.388;2023-02-10T06:55:56;95419.94;;;-7.87;89.71
10261;BME280;5175;42.606;23.388;2023-02-10T06:58:23;95426.75;;;-7.66;89.58
10261;BME280;5175;42.606;23.388;2023-02-10T07:00:50;95423.16;;;-7.44;91.22
10261;BME280;5175;42.606;23.388;2023-02-10T07:03:18;95422.38;;;-7.05;89.45
10261;BME280;5175;42.606;23.388;2023-02-10T07:05:45;95427.38;;;-6.73;88.46
10261;BME280;5175;42.606;23.388;2023-02-10T07:08:11;95427.25;;;-6.52;86.56
10261;BME280;5175;42.606;23.388;2023-02-10T07:10:38;95422.91;;;-6.52;83.25
10261;BME280;5175;42.606;23.388;2023-02-10T07:13:05;95416.75;;;-6.31;83.11
10261;BME280;5175;42.606;23.388;2023-02-10T07:15:32;95427.72;;;-5.99;82.29
10261;BME280;5175;42.606;23.388;2023-02-10T07:17:59;95426.28;;;-5.65;81.49
10261;BME280;5175;42.606;23.388;2023-02-10T07:20:27;95423.41;;;-5.72;80.87
10261;BME280;5175;42.606;23.388;2023-02-10T07:22:54;95415.78;;;-5.36;79.96
10261;BME280;5175;42.606;23.388;2023-02-10T07:25:20;95414.19;;;-5.10;78.14
10261;BME280;5175;42.606;23.388;2023-02-10T07:27:47;95413.41;;;-4.93;75.93
10261;BME280;5175;42.606;23.388;2023-02-10T07:30:14;95418.75;;;-4.67;75.56
10261;BME280;5175;42.606;23.388;2023-02-10T07:32:41;95388.81;;;-4.36;73.16
10261;BME280;5175;42.606;23.388;2023-02-10T07:35:09;95413.25;;;-4.02;72.78
10261;BME280;5175;42.606;23.388;2023-02-10T07:37:38;95418.63;;;-4.03;71.83
10261;BME280;5175;42.606;23.388;2023-02-10T07:40:06;95406.16;;;-3.92;71.49
10261;BME280;5175;42.606;23.388;2023-02-10T07:42:32;95404.50;;;-3.93;72.19
10261;BME280;5175;42.606;23.388;2023-02-10T07:44:59;95410.13;;;-3.62;69.87
10261;BME280;5175;42.606;23.388;2023-02-10T07:47:26;95416.66;;;-3.40;68.74
10261;BME280;5175;42.606;23.388;2023-02-10T07:49:53;95413.84;;;-3.47;68.94
10261;BME280;5175;42.606;23.388;2023-02-10T07:52:20;95412.13;;;-3.04;68.61
10261;BME280;5175;42.606;23.388;2023-02-10T07:54:48;95418.25;;;-2.80;66.14
10261;BME280;5175;42.606;23.388;2023-02-10T07:57:15;95413.00;;;-2.96;66.17
10261;BME280;5175;42.606;23.388;2023-02-10T07:59:41;95422.44;;;-2.61;65.01
10261;BME280;5175;42.606;23.388;2023-02-10T08:02:09;95427.41;;;-2.42;64.14
10261;BME280;5175;42.606;23.388;2023-02-10T08:04:36;95427.97;;;-2.14;62.68
10261;BME280;5175;42.606;23.388;2023-02-10T08:07:03;95414.16;;;-2.40;63.03
10261;BME280;5175;42.606;23.388;2023-02-10T08:09:30;95431.25;;;-2.04;62.42
10261;BME280;5175;42.606;23.388;2023-02-10T08:11:58;95428.66;;;-1.88;61.47
10261;BME280;5175;42.606;23.388;2023-02-10T08:14:25;95429.13;;;-1.76;59.87
10261;BME280;5175;42.606;23.388;2023-02-10T08:16:51;95427.19;;;-1.74;59.62
10261;BME280;5175;42.606;23.388;2023-02-10T08:19:18;95436.81;;;-1.59;59.64
10261;BME280;5175;42.606;23.388;2023-02-10T08:21:46;95431.91;;;-1.46;59.01
10261;BME280;5175;42.606;23.388;2023-02-10T08:24:13;95429.16;;;-1.60;58.98
10261;BME280;5175;42.606;23.388;2023-02-10T08:26:40;95434.03;;;-1.25;58.28
10261;BME280;5175;42.606;23.388;2023-02-10T08:29:08;95420.44;;;-1.12;57.27
10261;BME280;5175;42.606;23.388;2023-02-10T08:31:35;95429.44;;;-1.15;57.29
10261;BME280;5175;42.606;23.388;2023-02-10T08:34:02;95421.88;;;-1.10;57.76
10261;BME280;5175;42.606;23.388;2023-02-10T08:36:28;95438.44;;;-1.09;57.79
10261;BME280;5175;42.606;23.388;2023-02-10T08:38:56;95436.97;;;-1.12;57.14
10261;BME280;5175;42.606;23.388;2023-02-10T08:41:23;95423.75;;;-0.72;57.18
10261;BME280;5175;42.606;23.388;2023-02-10T08:43:50;95427.34;;;-0.26;54.45
10261;BME280;5175;42.606;23.388;2023-02-10T08:46:19;95424.47;;;-0.94;56.85
10261;BME280;5175;42.606;23.388;2023-02-10T08:48:45;95430.72;;;-0.48;55.40
10261;BME280;5175;42.606;23.388;2023-02-10T08:51:13;95424.59;;;-0.40;54.42
10261;BME280;5175;42.606;23.388;2023-02-10T08:53:41;95434.47;;;-0.12;54.41
10261;BME280;5175;42.606;23.388;2023-02-10T08:56:10;95432.09;;;0.02;53.64
10261;BME280;5175;42.606;23.388;2023-02-10T08:58:37;95428.06;;;-0.09;53.06
10261;BME280;5175;42.606;23.388;2023-02-10T09:01:08;95426.66;;;0.03;53.57
10261;BME280;5175;42.606;23.388;2023-02-10T09:03:36;95409.59;;;0.30;53.19
10261;BME280;5175;42.606;23.388;2023-02-10T09:06:03;95421.78;;;0.23;51.95
10261;BME280;5175;42.606;23.388;2023-02-10T09:08:30;95420.03;;;0.38;51.93
10261;BME280;5175;42.606;23.388;2023-02-10T09:10:57;95426.25;;;0.59;51.76
10261;BME280;5175;42.606;23.388;2023-02-10T09:13:24;95416.84;;;1.02;50.39
10261;BME280;5175;42.606;23.388;2023-02-10T09:15:50;95427.50;;;0.86;50.71
10261;BME280;5175;42.606;23.388;2023-02-10T09:18:17;95426.66;;;0.71;51.33
10261;BME280;5175;42.606;23.388;2023-02-10T09:20:45;95428.25;;;0.95;50.81
10261;BME280;5175;42.606;23.388;2023-02-10T09:23:12;95423.00;;;1.24;49.51
10261;BME280;5175;42.606;23.388;2023-02-10T09:25:39;95420.78;;;0.84;49.44
10261;BME280;5175;42.606;23.388;2023-02-10T09:28:06;95400.53;;;1.07;49.20
10261;BME280;5175;42.606;23.388;2023-02-10T09:30:34;95409.69;;;1.25;49.76
10261;BME280;5175;42.606;23.388;2023-02-10T09:33:00;95404.97;;;1.21;49.32
10261;BME280;5175;42.606;23.388;2023-02-10T09:35:27;95404.88;;;1.58;49.20
10261;BME280;5175;42.606;23.388;2023-02-10T09:37:55;95412.81;;;1.65;48.29
10261;BME280;5175;42.606;23.388;2023-02-10T09:40:25;95415.25;;;1.81;47.90
10261;BME280;5175;42.606;23.388;2023-02-10T09:43:06;95406.56;;;1.66;49.13
10261;BME280;5175;42.606;23.388;2023-02-10T09:45:37;95378.63;;;1.65;48.12
10261;BME280;5175;42.606;23.388;2023-02-10T09:48:25;95400.19;;;1.89;48.11
10261;BME280;5175;42.606;23.388;2023-02-10T09:51:01;95386.50;;;2.15;47.54
10261;BME280;5175;42.606;23.388;2023-02-10T09:53:31;95388.50;;;2.34;47.27
10261;BME280;5175;42.606;23.388;2023-02-10T09:55:59;95396.00;;;2.16;47.13
10261;BME280;5175;42.606;23.388;2023-02-10T09:58:32;95386.88;;;2.33;48.01
10261;BME280;5175;42.606;23.388;2023-02-10T10:01:03;95391.31;;;2.54;46.82
10261;BME280;5175;42.606;23.388;2023-02-10T10:03:38;95381.75;;;2.11;47.33
10261;BME280;5175;42.606;23.388;2023-02-10T10:06:14;95376.94;;;1.93;47.31
10261;BME280;5175;42.606;23.388;2023-02-10T10:08:56;95377.47;;;2.45;47.66
10261;BME280;5175;42.606;23.388;2023-02-10T10:11:28;95366.59;;;2.34;48.12
10261;BME280;5175;42.606;23.388;2023-02-10T10:13:59;95364.53;;;2.29;47.91
10261;BME280;5175;42.606;23.388;2023-02-10T10:16:42;95363.56;;;2.86;47.20
10261;BME280;5175;42.606;23.388;2023-02-10T10:19:19;95364.72;;;3.04;45.30
10261;BME280;5175;42.606;23.388;2023-02-10T10:21:55;95355.38;;;3.02;45.26
10261;BME280;5175;42.606;23.388;2023-02-10T10:24:36;95359.91;;;3.49;45.33
10261;BME280;5175;42.606;23.388;2023-02-10T10:27:19;95339.13;;;3.33;46.19
10261;BME280;5175;42.606;23.388;2023-02-10T10:29:52;95351.31;;;3.34;45.87
10261;BME280;5175;42.606;23.388;2023-02-10T10:32:27;95358.66;;;3.45;45.00
10261;BME280;5175;42.606;23.388;2023-02-10T10:34:55;95354.34;;;3.37;44.07
10261;BME280;5175;42.606;23.388;2023-02-10T10:37:24;95343.25;;;3.48;44.73
10261;BME280;5175;42.606;23.388;2023-02-10T10:39:55;95344.78;;;3.30;45.12
10261;BME280;5175;42.606;23.388;2023-02-10T10:42:26;95321.47;;;3.33;45.44
10261;BME280;5175;42.606;23.388;2023-02-10T10:44:59;95343.56;;;3.26;45.93
10261;BME280;5175;42.606;23.388;2023-02-10T10:47:38;95342.13;;;3.70;45.12
10261;BME280;5175;42.606;23.388;2023-02-10T10:50:12;95348.47;;;3.89;43.65
10261;BME280;5175;42.606;23.388;2023-02-10T10:52:40;95342.22;;;4.03;43.34
10261;BME280;5175;42.606;23.388;2023-02-10T10:55:14;95334.13;;;4.18;43.87
10261;BME280;5175;42.606;23.388;2023-02-10T10:57:42;95332.25;;;3.99;42.69
10261;BME280;5175;42.606;23.388;2023-02-10T11:00:17;95337.69;;;3.84;43.20
10261;BME280;5175;42.606;23.388;2023-02-10T11:02:54;95322.94;;;4.03;43.84
10261;BME280;5175;42.606;23.388;2023-02-10T11:05:22;95327.00;;;4.12;43.35
10261;BME280;5175;42.606;23.388;2023-02-10T11:07:52;95312.13;;;3.85;43.63
10261;BME280;5175;42.606;23.388;2023-02-10T11:10:22;95314.22;;;4.15;43.83
10261;BME280;5175;42.606;23.388;2023-02-10T11:12:51;95305.81;;;3.79;43.65
10261;BME280;5175;42.606;23.388;2023-02-10T11:15:32;95311.19;;;4.18;43.07
10261;BME280;5175;42.606;23.388;2023-02-10T11:18:01;95297.72;;;3.94;43.15
10261;BME280;5175;42.606;23.388;2023-02-10T11:20:33;95290.59;;;4.01;42.56
10261;BME280;5175;42.606;23.388;2023-02-10T11:23:02;95305.91;;;4.18;43.82
10261;BME280;5175;42.606;23.388;2023-02-10T11:25:33;95305.69;;;4.33;43.67
10261;BME280;5175;42.606;23.388;2023-02-10T11:28:01;95302.00;;;4.01;42.60
10261;BME280;5175;42.606;23.388;2023-02-10T11:30:31;95291.25;;;4.22;43.10
10261;BME280;5175;42.606;23.388;2023-02-10T11:32:58;95291.47;;;4.21;44.05
10261;BME280;5175;42.606;23.388;2023-02-10T11:35:26;95285.34;;;4.14;44.22
10261;BME280;5175;42.606;23.388;2023-02-10T11:37:57;95286.81;;;4.36;43.11
10261;BME280;5175;42.606;23.388;2023-02-10T11:40:27;95291.25;;;4.68;43.33
10261;BME280;5175;42.606;23.388;2023-02-10T11:42:58;95294.47;;;4.96;42.46
10261;BME280;5175;42.606;23.388;2023-02-10T11:45:26;95289.63;;;4.74;42.59
10261;BME280;5175;42.606;23.388;2023-02-10T11:48:00;95287.97;;;4.92;42.08
10261;BME280;5175;42.606;23.388;2023-02-10T11:50:30;95281.50;;;4.62;43.24
10261;BME280;5175;42.606;23.388;2023-02-10T11:52:57;95280.28;;;4.71;42.29
10261;BME280;5175;42.606;23.388;2023-02-10T11:55:41;95278.44;;;4.65;42.01
10261;BME280;5175;42.606;23.388;2023-02-10T11:58:35;95263.78;;;4.63;41.77
10261;BME280;5175;42.606;23.388;2023-02-10T12:01:31;95275.59;;;4.73;41.07
10261;BME280;5175;42.606;23.388;2023-02-10T12:04:01;95273.53;;;4.82;40.40
10261;BME280;5175;42.606;23.388;2023-02-10T12:06:36;95264.00;;;4.74;41.54
10261;BME280;5175;42.606;23.388;2023-02-10T12:09:08;95261.13;;;4.89;41.72
10261;BME280;5175;42.606;23.388;2023-02-10T12:11:47;95263.16;;;4.87;40.99
10261;BME280;5175;42.606;23.388;2023-02-10T12:14:42;95256.66;;;4.76;41.63
10261;BME280;5175;42.606;23.388;2023-02-10T12:17:23;95253.47;;;4.48;42.10
10261;BME280;5175;42.606;23.388;2023-02-10T12:20:00;95253.63;;;4.66;43.67
10261;BME280;5175;42.606;23.388;2023-02-10T12:22:36;95249.72;;;4.88;42.19
10261;BME280;5175;42.606;23.388;2023-02-10T12:25:16;95247.94;;;4.69;42.23
10261;BME280;5175;42.606;23.388;2023-02-10T12:27:58;95251.19;;;4.71;42.51
10261;BME280;5175;42.606;23.388;2023-02-10T12:30:34;95251.53;;;4.94;41.33
10261;BME280;5175;42.606;23.388;2023-02-10T12:33:16;95246.03;;;5.02;44.10
10261;BME280;5175;42.606;23.388;2023-02-10T12:35:49;95245.19;;;5.08;41.26
10261;BME280;5175;42.606;23.388;2023-02-10T12:38:41;95240.72;;;5.09;41.89
10261;BME280;5175;42.606;23.388;2023-02-10T12:41:15;95228.84;;;5.25;42.37
10261;BME280;5175;42.606;23.388;2023-02-10T12:43:56;95237.06;;;5.10;41.21
10261;BME280;5175;42.606;23.388;2023-02-10T12:46:34;95234.19;;;5.12;43.30
10261;BME280;5175;42.606;23.388;2023-02-10T12:49:17;95231.91;;;5.28;42.24
10261;BME280;5175;42.606;23.388;2023-02-10T12:51:57;95235.09;;;5.37;41.61
10261;BME280;5175;42.606;23.388;2023-02-10T12:54:30;95239.09;;;5.52;40.90
10261;BME280;5175;42.606;23.388;2023-02-10T12:57:01;95227.84;;;5.63;42.96
10261;BME280;5175;42.606;23.388;2023-02-10T12:59:34;95236.91;;;5.49;39.98
10261;BME280;5175;42.606;23.388;2023-02-10T13:02:11;95237.44;;;5.58;40.68
10261;BME280;5175;42.606;23.388;2023-02-10T13:04:43;95235.22;;;5.55;41.14
10261;BME280;5175;42.606;23.388;2023-02-10T13:07:17;95235.03;;;5.50;42.46
10261;BME280;5175;42.606;23.388;2023-02-10T13:09:50;95245.16;;;5.66;41.02
10261;BME280;5175;42.606;23.388;2023-02-10T13:12:21;95241.59;;;5.79;39.83
10261;BME280;5175;42.606;23.388;2023-02-10T13:14:54;95239.06;;;6.03;38.46
10261;BME280;5175;42.606;23.388;2023-02-10T13:17:36;95235.94;;;6.06;39.20
10261;BME280;5175;42.606;23.388;2023-02-10T13:20:11;95231.88;;;5.73;39.71
10261;BME280;5175;42.606;23.388;2023-02-10T13:22:49;95234.38;;;5.99;38.70